createdAt,value
2018-02-14T00:00:12.335Z,999.12
2018-02-14T00:02:05.650Z,999.15
2018-02-14T00:03:05.626Z,999.11
2018-02-14T00:04:58.456Z,999.11
2018-02-14T00:05:58.414Z,999.11
2018-02-14T00:07:51.232Z,999.17
2018-02-14T00:08:51.205Z,999.15
2018-02-14T00:10:44.045Z,999.14
2018-02-14T00:11:44.042Z,999.10
2018-02-14T00:13:36.823Z,999.10
2018-02-14T00:14:36.791Z,999.13
2018-02-14T00:16:30.125Z,999.15
2018-02-14T00:17:30.078Z,999.15
2018-02-14T00:19:22.896Z,999.15
2018-02-14T00:20:22.874Z,999.17
2018-02-14T00:22:15.706Z,999.16
2018-02-14T00:23:15.663Z,999.15
2018-02-14T00:25:08.486Z,999.21
2018-02-14T00:26:08.459Z,999.23
2018-02-14T00:28:01.296Z,999.25
2018-02-14T00:29:01.251Z,999.28
2018-02-14T00:30:54.067Z,999.27
2018-02-14T00:31:54.038Z,999.27
2018-02-14T00:33:46.870Z,999.34
2018-02-14T00:34:46.826Z,999.32
2018-02-14T00:36:39.645Z,999.36
2018-02-14T00:37:39.618Z,999.35
2018-02-14T00:39:32.454Z,999.37
2018-02-14T00:40:32.408Z,999.38
2018-02-14T00:42:25.224Z,999.40
2018-02-14T00:43:25.197Z,999.41
2018-02-14T00:45:18.031Z,999.41
2018-02-14T00:46:17.986Z,999.43
2018-02-14T00:48:10.812Z,999.42
2018-02-14T00:49:10.786Z,999.43
2018-02-14T00:51:03.622Z,999.46
2018-02-14T00:52:03.579Z,999.43
2018-02-14T00:53:56.393Z,999.42
2018-02-14T00:54:56.367Z,999.38
2018-02-14T00:56:49.293Z,999.40
2018-02-14T00:57:49.156Z,999.40
2018-02-14T00:59:41.975Z,999.39
2018-02-14T01:00:41.945Z,999.38
2018-02-14T01:02:34.778Z,999.42
2018-02-14T01:03:34.737Z,999.42
2018-02-14T01:05:27.558Z,999.42
2018-02-14T01:06:27.532Z,999.45
2018-02-14T01:08:20.369Z,999.42
2018-02-14T01:09:20.335Z,999.42
2018-02-14T01:11:13.147Z,999.46
2018-02-14T01:12:13.120Z,999.44
2018-02-14T01:14:05.955Z,999.48
2018-02-14T01:15:05.910Z,999.51
2018-02-14T01:16:58.728Z,999.42
2018-02-14T01:17:58.699Z,999.49
2018-02-14T01:19:51.540Z,999.44
2018-02-14T01:20:51.493Z,999.44
2018-02-14T01:22:44.315Z,999.45
2018-02-14T01:23:44.284Z,999.44
2018-02-14T01:25:37.116Z,999.48
2018-02-14T01:26:37.074Z,999.46
2018-02-14T01:28:29.896Z,999.45
2018-02-14T01:29:29.867Z,999.44
2018-02-14T01:31:22.709Z,999.47
2018-02-14T01:32:22.658Z,999.51
2018-02-14T01:34:15.481Z,999.53
2018-02-14T01:35:15.453Z,999.55
2018-02-14T01:37:08.285Z,999.58
2018-02-14T01:38:08.243Z,999.56
2018-02-14T01:40:01.062Z,999.57
2018-02-14T01:41:01.047Z,999.57
2018-02-14T01:42:53.865Z,999.59
2018-02-14T01:43:53.823Z,999.58
2018-02-14T01:45:46.643Z,999.58
2018-02-14T01:46:46.617Z,999.61
2018-02-14T01:48:39.951Z,999.62
2018-02-14T01:49:39.908Z,999.60
2018-02-14T01:51:32.726Z,999.59
2018-02-14T01:52:32.700Z,999.61
2018-02-14T01:54:25.534Z,999.63
2018-02-14T01:55:25.491Z,999.64
2018-02-14T01:57:18.309Z,999.65
2018-02-14T01:58:18.282Z,999.66
2018-02-14T02:00:11.612Z,999.68
2018-02-14T02:01:11.566Z,999.71
2018-02-14T02:03:04.879Z,999.70
2018-02-14T02:04:04.853Z,999.73
2018-02-14T02:05:58.192Z,999.71
2018-02-14T02:06:58.151Z,999.69
2018-02-14T02:08:51.460Z,999.73
2018-02-14T02:09:51.435Z,999.72
2018-02-14T02:11:44.270Z,999.72
2018-02-14T02:12:44.229Z,999.73
2018-02-14T02:14:37.050Z,999.69
2018-02-14T02:15:37.014Z,999.71
2018-02-14T02:17:29.850Z,999.65
2018-02-14T02:18:29.808Z,999.67
2018-02-14T02:20:22.631Z,999.62
2018-02-14T02:21:22.607Z,999.66
2018-02-14T02:23:15.446Z,999.65
2018-02-14T02:24:15.395Z,999.67
2018-02-14T02:26:08.211Z,999.61
2018-02-14T02:27:08.185Z,999.63
2018-02-14T02:29:01.539Z,999.63
2018-02-14T02:30:01.475Z,999.65
2018-02-14T02:31:54.289Z,999.73
2018-02-14T02:32:54.259Z,999.72
2018-02-14T02:34:47.093Z,999.77
2018-02-14T02:35:47.051Z,999.79
2018-02-14T02:37:39.873Z,999.82
2018-02-14T02:38:39.844Z,999.78
2018-02-14T02:40:32.677Z,999.84
2018-02-14T02:41:32.634Z,999.80
2018-02-14T02:43:25.450Z,999.83
2018-02-14T02:44:25.425Z,999.84
2018-02-14T02:46:18.255Z,999.83
2018-02-14T02:47:18.213Z,999.84
2018-02-14T02:49:11.033Z,999.81
2018-02-14T02:50:11.003Z,999.84
2018-02-14T02:52:05.012Z,999.81
2018-02-14T02:53:03.796Z,999.80
2018-02-14T02:54:56.614Z,999.82
2018-02-14T02:55:56.589Z,999.84
2018-02-14T02:57:49.417Z,999.86
2018-02-14T02:58:49.376Z,999.85
2018-02-14T03:00:42.192Z,999.85
2018-02-14T03:01:42.165Z,999.83
2018-02-14T03:03:34.996Z,999.88
2018-02-14T03:04:34.951Z,999.88
2018-02-14T03:06:27.772Z,999.92
2018-02-14T03:07:27.744Z,999.90
2018-02-14T03:09:20.579Z,999.94
2018-02-14T03:10:20.535Z,999.94
2018-02-14T03:12:13.354Z,999.96
2018-02-14T03:13:13.328Z,999.95
2018-02-14T03:15:06.157Z,999.99
2018-02-14T03:16:06.114Z,1000.02
2018-02-14T03:17:58.933Z,1000.04
2018-02-14T03:18:58.905Z,1000.07
2018-02-14T03:20:51.740Z,1000.09
2018-02-14T03:21:51.698Z,1000.11
2018-02-14T03:23:45.011Z,1000.09
2018-02-14T03:24:44.981Z,1000.18
2018-02-14T03:26:37.813Z,1000.18
2018-02-14T03:27:37.772Z,1000.21
2018-02-14T03:29:30.589Z,1000.21
2018-02-14T03:30:30.565Z,1000.22
2018-02-14T03:32:23.391Z,1000.23
2018-02-14T03:33:23.349Z,1000.26
2018-02-14T03:35:16.168Z,1000.25
2018-02-14T03:36:16.141Z,1000.23
2018-02-14T03:38:08.986Z,1000.22
2018-02-14T03:39:08.934Z,1000.27
2018-02-14T03:41:01.749Z,1000.28
2018-02-14T03:42:01.722Z,1000.30
2018-02-14T03:43:54.551Z,1000.33
2018-02-14T03:44:54.509Z,1000.31
2018-02-14T03:46:47.329Z,1000.39
2018-02-14T03:47:47.303Z,1000.37
2018-02-14T03:49:40.630Z,1000.39
2018-02-14T03:50:40.587Z,1000.42
2018-02-14T03:52:33.403Z,1000.46
2018-02-14T03:53:33.376Z,1000.43
2018-02-14T03:55:26.213Z,1000.48
2018-02-14T03:56:26.162Z,1000.46
2018-02-14T03:58:18.980Z,1000.44
2018-02-14T03:59:18.951Z,1000.49
2018-02-14T04:01:11.785Z,1000.55
2018-02-14T04:02:11.744Z,1000.56
2018-02-14T04:04:04.562Z,1000.63
2018-02-14T04:05:04.532Z,1000.61
2018-02-14T04:06:57.364Z,1000.66
2018-02-14T04:07:57.321Z,1000.67
2018-02-14T04:09:50.137Z,1000.73
2018-02-14T04:10:50.107Z,1000.71
2018-02-14T04:12:42.942Z,1000.65
2018-02-14T04:13:42.899Z,1000.69
2018-02-14T04:15:35.713Z,1000.69
2018-02-14T04:16:35.685Z,1000.79
2018-02-14T04:18:28.520Z,1000.81
2018-02-14T04:19:28.474Z,1000.78
2018-02-14T04:21:21.340Z,1000.79
2018-02-14T04:22:21.264Z,1000.81
2018-02-14T04:24:14.105Z,1000.80
2018-02-14T04:25:14.054Z,1000.82
2018-02-14T04:27:06.935Z,1000.87
2018-02-14T04:28:06.847Z,1000.84
2018-02-14T04:29:59.676Z,1000.94
2018-02-14T04:30:59.633Z,1000.97
2018-02-14T04:32:52.455Z,1001.01
2018-02-14T04:33:52.428Z,1000.98
2018-02-14T04:35:45.264Z,1000.97
2018-02-14T04:36:45.221Z,1001.01
2018-02-14T04:38:38.039Z,1001.02
2018-02-14T04:39:38.012Z,1001.04
2018-02-14T04:41:30.839Z,1001.08
2018-02-14T04:42:30.798Z,1001.04
2018-02-14T04:44:23.614Z,1001.06
2018-02-14T04:45:23.586Z,1001.07
2018-02-14T04:47:16.418Z,1001.08
2018-02-14T04:48:16.376Z,1001.09
2018-02-14T04:50:09.194Z,1001.10
2018-02-14T04:51:09.167Z,1001.11
2018-02-14T04:53:02.001Z,1001.04
2018-02-14T04:54:01.957Z,1001.09
2018-02-14T04:55:54.776Z,1001.12
2018-02-14T04:56:54.745Z,1001.11
2018-02-14T04:58:47.585Z,1001.15
2018-02-14T04:59:47.533Z,1001.15
2018-02-14T05:01:40.352Z,1001.18
2018-02-14T05:02:40.321Z,1001.16
2018-02-14T05:04:33.151Z,1001.22
2018-02-14T05:05:33.107Z,1001.28
2018-02-14T05:07:26.422Z,1001.28
2018-02-14T05:08:26.393Z,1001.27
2018-02-14T05:10:19.227Z,1001.32
2018-02-14T05:11:19.185Z,1001.36
2018-02-14T05:13:12.000Z,1001.37
2018-02-14T05:14:11.972Z,1001.37
2018-02-14T05:16:04.802Z,1001.38
2018-02-14T05:17:04.756Z,1001.43
2018-02-14T05:18:57.577Z,1001.48
2018-02-14T05:19:57.548Z,1001.45
2018-02-14T05:21:50.871Z,1001.50
2018-02-14T05:22:50.833Z,1001.52
2018-02-14T05:24:43.651Z,1001.55
2018-02-14T05:25:43.623Z,1001.53
2018-02-14T05:27:36.467Z,1001.53
2018-02-14T05:28:36.439Z,1001.57
2018-02-14T05:30:29.234Z,1001.55
2018-02-14T05:31:29.204Z,1001.57
2018-02-14T05:33:22.034Z,1001.58
2018-02-14T05:34:21.998Z,1001.61
2018-02-14T05:36:14.811Z,1001.58
2018-02-14T05:37:14.786Z,1001.57
2018-02-14T05:39:07.619Z,1001.61
2018-02-14T05:40:07.578Z,1001.58
2018-02-14T05:42:00.393Z,1001.65
2018-02-14T05:43:00.362Z,1001.67
2018-02-14T05:44:53.194Z,1001.70
2018-02-14T05:45:53.152Z,1001.70
2018-02-14T05:47:45.971Z,1001.74
2018-02-14T05:48:45.949Z,1001.72
2018-02-14T05:50:38.772Z,1001.72
2018-02-14T05:51:38.731Z,1001.75
2018-02-14T05:53:31.550Z,1001.83
2018-02-14T05:54:31.521Z,1001.83
2018-02-14T05:56:24.404Z,1001.90
2018-02-14T05:57:24.307Z,1001.93
2018-02-14T05:59:17.122Z,1001.92
2018-02-14T06:00:17.095Z,1001.94
2018-02-14T06:02:09.936Z,1001.98
2018-02-14T06:03:09.888Z,1001.97
2018-02-14T06:05:03.200Z,1002.05
2018-02-14T06:06:03.172Z,1002.02
2018-02-14T06:07:56.009Z,1002.02
2018-02-14T06:08:55.965Z,1002.10
2018-02-14T06:10:48.782Z,1002.12
2018-02-14T06:11:48.755Z,1002.14
2018-02-14T06:13:41.586Z,1002.18
2018-02-14T06:14:41.543Z,1002.15
2018-02-14T06:16:34.851Z,1002.23
2018-02-14T06:17:34.829Z,1002.21
2018-02-14T06:19:27.657Z,1002.32
2018-02-14T06:20:27.612Z,1002.33
2018-02-14T06:22:20.436Z,1002.39
2018-02-14T06:23:20.402Z,1002.39
2018-02-14T06:25:13.237Z,1002.42
2018-02-14T06:26:13.192Z,1002.42
2018-02-14T06:28:06.009Z,1002.45
2018-02-14T06:29:05.984Z,1002.45
2018-02-14T06:30:58.830Z,1002.49
2018-02-14T06:31:58.781Z,1002.54
2018-02-14T06:33:52.090Z,1002.56
2018-02-14T06:34:52.061Z,1002.59
2018-02-14T06:36:44.894Z,1002.65
2018-02-14T06:37:44.861Z,1002.68
2018-02-14T06:39:37.670Z,1002.69
2018-02-14T06:40:37.642Z,1002.67
2018-02-14T06:42:30.967Z,1002.76
2018-02-14T06:43:30.924Z,1002.74
2018-02-14T06:45:23.750Z,1002.80
2018-02-14T06:46:23.721Z,1002.83
2018-02-14T06:48:17.053Z,1002.87
2018-02-14T06:49:17.007Z,1002.90
2018-02-14T06:51:10.318Z,1002.94
2018-02-14T06:52:10.289Z,1002.94
2018-02-14T06:54:03.613Z,1002.91
2018-02-14T06:55:03.572Z,1002.96
2018-02-14T06:56:56.882Z,1002.93
2018-02-14T06:57:56.856Z,1002.93
2018-02-14T06:59:50.184Z,1002.91
2018-02-14T07:00:50.141Z,1002.95
2018-02-14T07:02:43.449Z,1002.92
2018-02-14T07:03:43.422Z,1002.88
2018-02-14T07:05:36.746Z,1002.91
2018-02-14T07:06:36.707Z,1002.94
2018-02-14T07:08:29.535Z,1002.97
2018-02-14T07:09:29.507Z,1002.92
2018-02-14T07:11:22.828Z,1003.00
2018-02-14T07:12:22.801Z,1002.96
2018-02-14T07:14:16.097Z,1002.96
2018-02-14T07:15:16.073Z,1002.93
2018-02-14T07:17:09.396Z,1003.00
2018-02-14T07:18:09.358Z,1002.96
2018-02-14T07:20:02.672Z,1002.96
2018-02-14T07:21:02.644Z,1003.04
2018-02-14T07:22:55.474Z,1003.04
2018-02-14T07:23:55.434Z,1003.05
2018-02-14T07:25:48.744Z,1003.09
2018-02-14T07:26:48.715Z,1003.08
2018-02-14T07:28:41.555Z,1003.10
2018-02-14T07:29:41.510Z,1003.07
2018-02-14T07:31:34.329Z,1003.07
2018-02-14T07:32:34.303Z,1003.06
2018-02-14T07:34:27.632Z,1003.12
2018-02-14T07:35:27.587Z,1003.13
2018-02-14T07:37:20.403Z,1003.11
2018-02-14T07:38:20.374Z,1003.10
2018-02-14T07:40:13.700Z,1003.15
2018-02-14T07:41:13.657Z,1003.18
2018-02-14T07:43:06.975Z,1003.22
2018-02-14T07:44:06.947Z,1003.25
2018-02-14T07:46:00.289Z,1003.28
2018-02-14T07:47:00.231Z,1003.28
2018-02-14T07:48:53.555Z,1003.31
2018-02-14T07:49:53.525Z,1003.32
2018-02-14T07:51:46.402Z,1003.35
2018-02-14T07:52:46.315Z,1003.38
2018-02-14T07:54:39.624Z,1003.30
2018-02-14T07:55:39.598Z,1003.35
2018-02-14T07:57:32.925Z,1003.33
2018-02-14T07:58:32.880Z,1003.36
2018-02-14T08:00:26.189Z,1003.32
2018-02-14T08:01:26.161Z,1003.33
2018-02-14T08:03:18.995Z,1003.35
2018-02-14T08:04:18.951Z,1003.34
2018-02-14T08:06:12.261Z,1003.34
2018-02-14T08:07:12.234Z,1003.33
2018-02-14T08:09:05.072Z,1003.38
2018-02-14T08:10:05.022Z,1003.37
2018-02-14T08:11:57.841Z,1003.44
2018-02-14T08:12:57.814Z,1003.44
2018-02-14T08:14:50.745Z,1003.46
2018-02-14T08:15:50.605Z,1003.54
2018-02-14T08:17:43.420Z,1003.52
2018-02-14T08:18:43.395Z,1003.51
2018-02-14T08:20:36.732Z,1003.56
2018-02-14T08:21:36.691Z,1003.55
2018-02-14T08:23:29.517Z,1003.58
2018-02-14T08:24:29.489Z,1003.61
2018-02-14T08:26:22.833Z,1003.59
2018-02-14T08:27:22.790Z,1003.58
2018-02-14T08:29:15.607Z,1003.63
2018-02-14T08:30:15.576Z,1003.62
2018-02-14T08:32:08.983Z,1003.67
2018-02-14T08:33:08.872Z,1003.66
2018-02-14T08:35:01.689Z,1003.65
2018-02-14T08:36:01.660Z,1003.68
2018-02-14T08:37:54.987Z,1003.70
2018-02-14T08:38:54.943Z,1003.67
2018-02-14T08:40:47.760Z,1003.71
2018-02-14T08:41:47.734Z,1003.69
2018-02-14T08:43:40.566Z,1003.69
2018-02-14T08:44:40.523Z,1003.68
2018-02-14T08:46:33.348Z,1003.72
2018-02-14T08:47:33.321Z,1003.71
2018-02-14T08:49:26.161Z,1003.68
2018-02-14T08:50:26.113Z,1003.69
2018-02-14T08:52:18.935Z,1003.73
2018-02-14T08:53:18.909Z,1003.73
2018-02-14T08:55:11.738Z,1003.69
2018-02-14T08:56:11.700Z,1003.73
2018-02-14T08:58:04.518Z,1003.72
2018-02-14T08:59:04.489Z,1003.72
2018-02-14T09:00:57.324Z,1003.68
2018-02-14T09:01:57.281Z,1003.73
2018-02-14T09:03:50.100Z,1003.73
2018-02-14T09:04:50.081Z,1003.79
2018-02-14T09:06:43.406Z,1003.76
2018-02-14T09:07:43.357Z,1003.79
2018-02-14T09:09:36.178Z,1003.80
2018-02-14T09:10:36.146Z,1003.86
2018-02-14T09:12:28.976Z,1003.86
2018-02-14T09:13:28.936Z,1003.87
2018-02-14T09:15:22.258Z,1003.89
2018-02-14T09:16:22.229Z,1003.94
2018-02-14T09:18:15.070Z,1003.92
2018-02-14T09:19:15.023Z,1003.96
2018-02-14T09:21:07.840Z,1003.98
2018-02-14T09:22:07.812Z,1004.05
2018-02-14T09:24:01.156Z,1004.06
2018-02-14T09:25:01.110Z,1004.03
2018-02-14T09:26:54.423Z,1004.02
2018-02-14T09:27:54.394Z,1003.99
2018-02-14T09:29:47.231Z,1003.99
2018-02-14T09:30:47.188Z,1004.00
2018-02-14T09:32:40.014Z,1003.98
2018-02-14T09:33:39.989Z,1004.03
2018-02-14T09:35:32.827Z,1003.98
2018-02-14T09:36:32.781Z,1003.99
2018-02-14T09:38:26.101Z,1004.03
2018-02-14T09:39:26.075Z,1004.01
2018-02-14T09:41:18.906Z,1003.98
2018-02-14T09:42:18.864Z,1003.97
2018-02-14T09:44:12.183Z,1004.01
2018-02-14T09:45:12.158Z,1003.98
2018-02-14T09:47:04.990Z,1004.00
2018-02-14T09:48:04.947Z,1004.03
2018-02-14T09:49:58.273Z,1004.00
2018-02-14T09:50:58.244Z,1004.09
2018-02-14T09:52:51.081Z,1004.10
2018-02-14T09:53:51.041Z,1004.10
2018-02-14T09:55:43.861Z,1004.10
2018-02-14T09:56:43.834Z,1004.08
2018-02-14T09:58:37.162Z,1004.15
2018-02-14T09:59:37.120Z,1004.09
2018-02-14T10:01:30.434Z,1004.15
2018-02-14T10:02:30.409Z,1004.10
2018-02-14T10:04:23.242Z,1004.14
2018-02-14T10:05:23.197Z,1004.12
2018-02-14T10:07:16.517Z,1004.23
2018-02-14T10:08:16.491Z,1004.25
2018-02-14T10:10:09.327Z,1004.27
2018-02-14T10:11:09.318Z,1004.27
2018-02-14T10:13:02.111Z,1004.22
2018-02-14T10:14:02.075Z,1004.26
2018-02-14T10:15:54.912Z,1004.31
2018-02-14T10:16:54.870Z,1004.29
2018-02-14T10:18:47.690Z,1004.32
2018-02-14T10:19:47.664Z,1004.38
2018-02-14T10:21:41.002Z,1004.40
2018-02-14T10:22:40.962Z,1004.36
2018-02-14T10:24:33.785Z,1004.32
2018-02-14T10:25:33.758Z,1004.39
2018-02-14T10:27:26.594Z,1004.38
2018-02-14T10:28:26.569Z,1004.39
2018-02-14T10:30:19.375Z,1004.42
2018-02-14T10:31:19.349Z,1004.43
2018-02-14T10:33:12.194Z,1004.39
2018-02-14T10:34:12.146Z,1004.40
2018-02-14T10:36:04.971Z,1004.36
2018-02-14T10:37:04.944Z,1004.35
2018-02-14T10:38:58.288Z,1004.36
2018-02-14T10:39:58.246Z,1004.39
2018-02-14T10:41:51.070Z,1004.37
2018-02-14T10:42:51.043Z,1004.44
2018-02-14T10:44:44.374Z,1004.36
2018-02-14T10:45:44.332Z,1004.38
2018-02-14T10:47:37.153Z,1004.34
2018-02-14T10:48:37.127Z,1004.38
2018-02-14T10:50:29.967Z,1004.40
2018-02-14T10:51:29.923Z,1004.43
2018-02-14T10:53:22.749Z,1004.45
2018-02-14T10:54:22.721Z,1004.46
2018-02-14T10:56:15.561Z,1004.40
2018-02-14T10:57:15.517Z,1004.33
2018-02-14T10:59:08.844Z,1004.35
2018-02-14T11:00:08.822Z,1004.35
2018-02-14T11:02:02.166Z,1004.34
2018-02-14T11:03:02.121Z,1004.32
2018-02-14T11:04:54.948Z,1004.30
2018-02-14T11:05:54.921Z,1004.31
2018-02-14T11:07:47.764Z,1004.25
2018-02-14T11:08:47.725Z,1004.24
2018-02-14T11:10:40.550Z,1004.22
2018-02-14T11:11:40.525Z,1004.22
2018-02-14T11:13:33.859Z,1004.22
2018-02-14T11:14:33.815Z,1004.26
2018-02-14T11:16:26.639Z,1004.28
2018-02-14T11:17:26.613Z,1004.32
2018-02-14T11:19:19.452Z,1004.29
2018-02-14T11:20:19.408Z,1004.30
2018-02-14T11:22:12.237Z,1004.33
2018-02-14T11:23:12.213Z,1004.30
2018-02-14T11:25:05.053Z,1004.25
2018-02-14T11:26:05.011Z,1004.28
2018-02-14T11:27:57.836Z,1004.25
2018-02-14T11:28:57.808Z,1004.25
2018-02-14T11:30:50.650Z,1004.21
2018-02-14T11:31:50.607Z,1004.25
2018-02-14T11:33:43.435Z,1004.26
2018-02-14T11:34:43.408Z,1004.30
2018-02-14T11:36:36.249Z,1004.27
2018-02-14T11:37:36.210Z,1004.26
2018-02-14T11:39:29.036Z,1004.27
2018-02-14T11:40:29.015Z,1004.24
2018-02-14T11:42:21.846Z,1004.25
2018-02-14T11:43:21.809Z,1004.23
2018-02-14T11:45:14.638Z,1004.20
2018-02-14T11:46:14.611Z,1004.18
2018-02-14T11:48:07.450Z,1004.13
2018-02-14T11:49:07.411Z,1004.10
2018-02-14T11:51:00.243Z,1004.13
2018-02-14T11:52:00.220Z,1004.10
2018-02-14T11:53:53.058Z,1004.09
2018-02-14T11:54:53.019Z,1004.15
2018-02-14T11:56:45.849Z,1004.10
2018-02-14T11:57:45.828Z,1004.08
2018-02-14T11:59:38.665Z,1004.07
2018-02-14T12:00:38.621Z,1004.09
2018-02-14T12:02:31.449Z,1004.07
2018-02-14T12:03:31.425Z,1004.05
2018-02-14T12:05:24.264Z,1004.11
2018-02-14T12:06:24.225Z,1004.10
2018-02-14T12:08:17.056Z,1004.11
2018-02-14T12:09:17.033Z,1004.10
2018-02-14T12:11:09.875Z,1004.10
2018-02-14T12:12:09.840Z,1004.05
2018-02-14T12:14:02.658Z,1004.07
2018-02-14T12:15:02.634Z,1004.05
2018-02-14T12:16:55.471Z,1004.03
2018-02-14T12:17:55.430Z,1004.02
2018-02-14T12:19:48.259Z,1004.05
2018-02-14T12:20:48.233Z,1004.01
2018-02-14T12:22:41.074Z,1004.02
2018-02-14T12:23:41.032Z,1004.01
2018-02-14T12:25:33.857Z,1004.01
2018-02-14T12:26:33.832Z,1004.01
2018-02-14T12:28:26.672Z,1003.94
2018-02-14T12:29:26.631Z,1003.95
2018-02-14T12:31:19.460Z,1003.94
2018-02-14T12:32:19.435Z,1003.90
2018-02-14T12:34:12.276Z,1003.90
2018-02-14T12:35:12.237Z,1003.86
2018-02-14T12:37:05.068Z,1003.81
2018-02-14T12:38:05.044Z,1003.82
2018-02-14T12:39:57.885Z,1003.85
2018-02-14T12:40:57.845Z,1003.84
2018-02-14T12:42:50.671Z,1003.80
2018-02-14T12:43:50.646Z,1003.85
2018-02-14T12:45:43.485Z,1003.78
2018-02-14T12:46:43.448Z,1003.75
2018-02-14T12:48:36.273Z,1003.73
2018-02-14T12:49:36.248Z,1003.77
2018-02-14T12:51:29.094Z,1003.79
2018-02-14T12:52:29.057Z,1003.76
2018-02-14T12:54:21.885Z,1003.79
2018-02-14T12:55:21.860Z,1003.79
2018-02-14T12:57:14.707Z,1003.76
2018-02-14T12:58:14.663Z,1003.78
2018-02-14T13:00:07.491Z,1003.77
2018-02-14T13:01:07.467Z,1003.72
2018-02-14T13:03:00.309Z,1003.72
2018-02-14T13:04:00.268Z,1003.69
2018-02-14T13:05:53.592Z,1003.65
2018-02-14T13:06:53.570Z,1003.67
2018-02-14T13:08:46.412Z,1003.70
2018-02-14T13:09:46.377Z,1003.68
2018-02-14T13:11:39.215Z,1003.70
2018-02-14T13:12:39.186Z,1003.67
2018-02-14T13:14:32.028Z,1003.71
2018-02-14T13:15:31.996Z,1003.73
2018-02-14T13:17:24.818Z,1003.73
2018-02-14T13:18:24.797Z,1003.75
2018-02-14T13:20:17.643Z,1003.73
2018-02-14T13:21:17.604Z,1003.76
2018-02-14T13:23:10.928Z,1003.75
2018-02-14T13:24:10.907Z,1003.79
2018-02-14T13:26:03.756Z,1003.76
2018-02-14T13:27:03.711Z,1003.76
2018-02-14T13:28:56.550Z,1003.74
2018-02-14T13:29:56.527Z,1003.78
2018-02-14T13:31:49.370Z,1003.71
2018-02-14T13:32:49.336Z,1003.73
2018-02-14T13:34:42.169Z,1003.75
2018-02-14T13:35:42.144Z,1003.73
2018-02-14T13:37:34.997Z,1003.73
2018-02-14T13:38:34.956Z,1003.69
2018-02-14T13:40:27.780Z,1003.73
2018-02-14T13:41:27.761Z,1003.72
2018-02-14T13:43:20.605Z,1003.68
2018-02-14T13:44:20.568Z,1003.72
2018-02-14T13:46:13.404Z,1003.68
2018-02-14T13:47:13.382Z,1003.66
2018-02-14T13:49:06.228Z,1003.62
2018-02-14T13:50:06.225Z,1003.61
2018-02-14T13:51:59.513Z,1003.68
2018-02-14T13:52:59.492Z,1003.68
2018-02-14T13:54:52.835Z,1003.66
2018-02-14T13:55:52.792Z,1003.71
2018-02-14T13:57:45.626Z,1003.62
2018-02-14T13:58:45.604Z,1003.66
2018-02-14T14:00:38.458Z,1003.67
2018-02-14T14:01:38.422Z,1003.74
2018-02-14T14:03:31.747Z,1003.73
2018-02-14T14:04:31.724Z,1003.73
2018-02-14T14:06:24.571Z,1003.68
2018-02-14T14:07:24.534Z,1003.67
2018-02-14T14:09:17.365Z,1003.68
2018-02-14T14:10:17.349Z,1003.66
2018-02-14T14:12:10.681Z,1003.63
2018-02-14T14:13:10.648Z,1003.64
2018-02-14T14:15:03.481Z,1003.62
2018-02-14T14:16:03.463Z,1003.58
2018-02-14T14:17:56.309Z,1003.56
2018-02-14T14:18:56.276Z,1003.59
2018-02-14T14:20:49.109Z,1003.58
2018-02-14T14:23:42.406Z,1003.65
2018-02-14T14:24:42.372Z,1003.61
2018-02-14T14:26:35.229Z,1003.57
2018-02-14T14:27:35.206Z,1003.60
2018-02-14T14:29:28.086Z,1003.57
2018-02-14T14:30:28.056Z,1003.58
2018-02-14T14:32:21.408Z,1003.60
2018-02-14T14:33:21.390Z,1003.62
2018-02-14T14:35:14.256Z,1003.66
2018-02-14T14:36:14.220Z,1003.64
2018-02-14T14:38:07.078Z,1003.64
2018-02-14T14:39:07.060Z,1003.71
2018-02-14T14:40:59.930Z,1003.72
2018-02-14T14:41:59.896Z,1003.70
2018-02-14T14:43:52.757Z,1003.79
2018-02-14T14:44:52.737Z,1003.79
2018-02-14T14:46:45.612Z,1003.81
2018-02-14T14:47:45.579Z,1003.77
2018-02-14T14:49:38.440Z,1003.79
2018-02-14T14:50:38.420Z,1003.80
2018-02-14T14:52:31.291Z,1003.79
2018-02-14T14:53:31.261Z,1003.81
2018-02-14T14:55:24.134Z,1003.82
2018-02-14T14:56:24.111Z,1003.83
2018-02-14T14:58:17.474Z,1003.90
2018-02-14T14:59:17.441Z,1003.91
2018-02-14T15:01:10.300Z,1003.87
2018-02-14T15:02:10.282Z,1003.83
2018-02-14T15:04:03.150Z,1003.84
2018-02-14T15:05:03.119Z,1003.84
2018-02-14T15:06:55.976Z,1003.84
2018-02-14T15:07:55.955Z,1003.82
2018-02-14T15:09:48.828Z,1003.84
2018-02-14T15:10:48.790Z,1003.89
2018-02-14T15:12:41.646Z,1003.80
2018-02-14T15:13:41.626Z,1003.80
2018-02-14T15:15:34.499Z,1003.81
2018-02-14T15:16:34.465Z,1003.76
2018-02-14T15:18:27.324Z,1003.81
2018-02-14T15:19:27.315Z,1003.73
2018-02-14T15:21:20.173Z,1003.75
2018-02-14T15:22:20.138Z,1003.73
2018-02-14T15:24:12.996Z,1003.74
2018-02-14T15:25:12.977Z,1003.76
2018-02-14T15:27:05.846Z,1003.80
2018-02-14T15:28:05.815Z,1003.79
2018-02-14T15:29:58.666Z,1003.74
2018-02-14T15:30:58.644Z,1003.71
2018-02-14T15:32:51.524Z,1003.61
2018-02-14T15:33:51.489Z,1003.65
2018-02-14T15:35:44.360Z,1003.62
2018-02-14T15:36:44.337Z,1003.58
2018-02-14T15:38:37.234Z,1003.64
2018-02-14T15:39:37.186Z,1003.63
2018-02-14T15:41:30.035Z,1003.72
2018-02-14T15:42:30.017Z,1003.71
2018-02-14T15:44:23.379Z,1003.69
2018-02-14T15:45:23.346Z,1003.72
2018-02-14T15:47:16.707Z,1003.65
2018-02-14T15:48:16.716Z,1003.68
2018-02-14T15:50:09.559Z,1003.69
2018-02-14T15:51:09.522Z,1003.70
2018-02-14T15:53:02.385Z,1003.75
2018-02-14T15:54:02.362Z,1003.74
2018-02-14T15:55:55.234Z,1003.69
2018-02-14T15:56:55.200Z,1003.70
2018-02-14T15:58:48.052Z,1003.73
2018-02-14T15:59:48.031Z,1003.72
2018-02-14T16:01:41.392Z,1003.76
2018-02-14T16:02:41.356Z,1003.75
2018-02-14T16:04:34.713Z,1003.76
2018-02-14T16:05:34.692Z,1003.71
2018-02-14T16:07:27.561Z,1003.75
2018-02-14T16:08:27.529Z,1003.75
2018-02-14T16:10:20.380Z,1003.76
2018-02-14T16:11:20.360Z,1003.76
2018-02-14T16:13:13.227Z,1003.80
2018-02-14T16:14:13.194Z,1003.76
2018-02-14T16:16:06.047Z,1003.76
2018-02-14T16:17:06.026Z,1003.75
2018-02-14T16:18:58.903Z,1003.77
2018-02-14T16:19:58.867Z,1003.82
2018-02-14T16:21:51.720Z,1003.82
2018-02-14T16:22:51.699Z,1003.80
2018-02-14T16:24:44.566Z,1003.80
2018-02-14T16:25:44.533Z,1003.84
2018-02-14T16:27:37.387Z,1003.85
2018-02-14T16:28:37.368Z,1003.88
2018-02-14T16:30:30.230Z,1003.89
2018-02-14T16:31:30.195Z,1003.95
2018-02-14T16:33:23.545Z,1003.95
2018-02-14T16:34:23.527Z,1003.96
2018-02-14T16:36:16.384Z,1004.00
2018-02-14T16:37:16.347Z,1004.00
2018-02-14T16:39:09.198Z,1004.03
2018-02-14T16:40:09.180Z,1004.02
2018-02-14T16:42:02.041Z,1004.03
2018-02-14T16:43:02.007Z,1004.02
2018-02-14T16:44:54.857Z,1004.05
2018-02-14T16:45:54.836Z,1003.98
2018-02-14T16:47:47.705Z,1004.02
2018-02-14T16:48:47.669Z,1004.04
2018-02-14T16:50:40.519Z,1004.04
2018-02-14T16:51:40.497Z,1004.07
2018-02-14T16:53:33.360Z,1004.09
2018-02-14T16:54:33.325Z,1004.11
2018-02-14T16:56:26.171Z,1004.09
2018-02-14T16:57:26.151Z,1004.11
2018-02-14T16:59:19.012Z,1004.18
2018-02-14T17:00:18.977Z,1004.20
2018-02-14T17:02:11.825Z,1004.21
2018-02-14T17:03:11.805Z,1004.22
2018-02-14T17:05:04.663Z,1004.21
2018-02-14T17:06:04.631Z,1004.20
2018-02-14T17:07:57.480Z,1004.21
2018-02-14T17:08:57.452Z,1004.20
2018-02-14T17:10:50.320Z,1004.23
2018-02-14T17:11:50.274Z,1004.23
2018-02-14T17:13:43.124Z,1004.20
2018-02-14T17:14:43.100Z,1004.27
2018-02-14T17:16:35.962Z,1004.28
2018-02-14T17:17:35.927Z,1004.21
2018-02-14T17:19:28.774Z,1004.24
2018-02-14T17:20:28.753Z,1004.30
2018-02-14T17:22:21.614Z,1004.26
2018-02-14T17:23:21.572Z,1004.27
2018-02-14T17:25:14.422Z,1004.29
2018-02-14T17:26:14.400Z,1004.22
2018-02-14T17:28:07.268Z,1004.21
2018-02-14T17:29:07.231Z,1004.19
2018-02-14T17:31:00.077Z,1004.22
2018-02-14T17:32:00.053Z,1004.21